Hyundai Republic — A8IL3 — position and weather

sailwx.info

Track history (hours):
 
Tides and Currents Weather Stations Pressure Air Temp Water Temp Dewpoint Dewpoint Depression Visibility Wind Speed Wind Dir Waves Ship Positions

Hyundai Republic

Last reported at 2015-Jul-03 04:06 UTC. Time now 2015-Jul-05 19:19 UTC.
Position N 22°07' E 114°22'.

Length 305 m; draft 12.5 m.

Type: Ship (hazmat cat A). MMSI: 636090994.

Date/timePositionNaut miles runAvg speedWind from/ knotsBaromVisibWave heightAir tempDewpointWater temp
2015-Jul-03 04:06N 22°07' E 114°22'2012.7
2015-Jul-03 02:33N 22°19' E 114°05'1211.8
2015-Jul-03 01:33N 22°24' E 113°54'0 0.0
2015-Jul-02 09:34N 22°24' E 113°54'11 9.7
2015-Jul-02 08:25N 22°20' E 114°05'18 2.7
2015-Jul-02 01:33N 22°07' E 113°51'1313.1
2015-Jul-02 00:33N 22°20' E 113°48'7 0.6
2015-Jul-01 13:08N 22°27' E 113°45'814.6
2015-Jul-01 12:33N 22°19' E 113°48'1312.7
2015-Jul-01 11:32N 22°06' E 113°51'1513.4
2015-Jul-01 10:24N 22°09' E 114°07'1618.2
2015-Jul-01 09:31N 22°09' E 114°25'21918.3
2015-Jun-30 21:32N 23°41' E 118°00'1919.5
2015-Jun-30 20:33N 23°53' E 118°16'40218.3
2015-Jun-29 22:33N 29°26' E 122°29'9 2.1
2015-Jun-29 18:22N 29°34' E 122°24'810.0
2015-Jun-29 17:33N 29°42' E 122°22'1111.3
2015-Jun-29 16:33N 29°50' E 122°13'9 9.1
2015-Jun-29 15:33N 29°54' E 122°04'2 0.7
2015-Jun-29 13:33N 29°54' E 122°02'0 0.0
2015-Jun-29 10:26N 29°54' E 122°02'0 0.0
2015-Jun-29 02:26N 29°54' E 122°02'0 0.0
2015-Jun-29 01:08N 29°54' E 122°02'0 0.0
2015-Jun-29 00:14N 29°54' E 122°02'1 1.5
2015-Jun-28 23:33N 29°54' E 122°03'8 7.6
2015-Jun-28 22:33N 29°53' E 122°11'1111.1
2015-Jun-28 21:33N 29°45' E 122°20'3 0.7
2015-Jun-28 17:04N 29°45' E 122°24'0 0.0
2015-Jun-28 16:16N 29°45' E 122°24'0 0.0
2015-Jun-28 02:22N 29°45' E 122°24'0 0.1
2015-Jun-28 00:10N 29°45' E 122°24'0 0.0
2015-Jun-27 23:22N 29°45' E 122°24'0 0.0
2015-Jun-27 20:04N 29°45' E 122°24'0 0.1
2015-Jun-27 17:28N 29°45' E 122°24'0 0.0
2015-Jun-27 14:10N 29°45' E 122°24'0 0.1
2015-Jun-27 13:10N 29°45' E 122°24'0 0.0
2015-Jun-27 07:21N 29°45' E 122°24'0 0.1
2015-Jun-27 05:27N 29°45' E 122°24'0 0.0
2015-Jun-27 03:15N 29°45' E 122°24'0 0.1
2015-Jun-27 02:33N 29°45' E 122°24'0 0.0
2015-Jun-27 01:33N 29°45' E 122°24'0 0.1
2015-Jun-27 00:15N 29°45' E 122°24'0 0.1
2015-Jun-26 23:33N 29°45' E 122°24'2 2.0
2015-Jun-26 22:33N 29°45' E 122°26'9 8.8
2015-Jun-26 21:32N 29°47' E 122°36'9 9.2
2015-Jun-26 20:33N 29°53' E 122°43'14 9.5
2015-Jun-26 19:04N 30°03' E 122°55'23 8.1
2015-Jun-26 16:17N 30°25' E 122°48'8 9.7
2015-Jun-26 15:30N 30°28' E 122°40'1210.6
2015-Jun-26 14:20N 30°31' E 122°26'1012.0
2015-Jun-26 13:30N 30°33' E 122°15'9 1.1
2015-Jun-26 05:23N 30°36' E 122°05'3 3.1
2015-Jun-26 04:32N 30°35' E 122°08'1311.8
2015-Jun-26 03:25N 30°33' E 122°23'8 9.7
2015-Jun-26 02:33N 30°29' E 122°32'5 0.3
2015-Jun-25 12:31N 30°30' E 122°37'1313.0
2015-Jun-25 11:33N 30°34' E 122°50'1211.7
2015-Jun-25 10:32N 30°46' E 122°55'41113.2
2015-Jun-24 03:31N 37°36' E 122°53'1212.5
2015-Jun-24 02:33N 37°43' E 122°40'1712.8
2015-Jun-24 01:15N 37°52' E 122°22'913.3
2015-Jun-24 00:33N 37°58' E 122°13'1313.3
2015-Jun-23 23:33N 38°04' E 121°58'2813.5
2015-Jun-23 21:31N 38°18' E 121°28'3313.2
2015-Jun-23 19:03N 38°33' E 120°51'  
Track history (hours):
 
Tides and Currents Weather Stations Pressure Air Temp Water Temp Dewpoint Dewpoint Depression Visibility Wind Speed Wind Dir Waves Ship Positions

Hyundai Republic

Last reported at 2015-Jul-03 04:06 UTC. Time now 2015-Jul-05 19:19 UTC.
Position N 22°07' E 114°22'.

Length 305 m; draft 12.5 m.

Type: Ship (hazmat cat A). MMSI: 636090994.

Date/timePositionNaut miles runAvg speedWind from/ knotsBaromVisibWave heightAir tempDewpointWater temp
2015-Jul-03 04:06N 22°07' E 114°22'2012.7
2015-Jul-03 02:33N 22°19' E 114°05'1211.8
2015-Jul-03 01:33N 22°24' E 113°54'0 0.0
2015-Jul-02 09:34N 22°24' E 113°54'11 9.7
2015-Jul-02 08:25N 22°20' E 114°05'18 2.7
2015-Jul-02 01:33N 22°07' E 113°51'1313.1
2015-Jul-02 00:33N 22°20' E 113°48'7 0.6
2015-Jul-01 13:08N 22°27' E 113°45'814.6
2015-Jul-01 12:33N 22°19' E 113°48'1312.7
2015-Jul-01 11:32N 22°06' E 113°51'1513.4
2015-Jul-01 10:24N 22°09' E 114°07'1618.2
2015-Jul-01 09:31N 22°09' E 114°25'21918.3
2015-Jun-30 21:32N 23°41' E 118°00'1919.5
2015-Jun-30 20:33N 23°53' E 118°16'40218.3
2015-Jun-29 22:33N 29°26' E 122°29'9 2.1
2015-Jun-29 18:22N 29°34' E 122°24'810.0
2015-Jun-29 17:33N 29°42' E 122°22'1111.3
2015-Jun-29 16:33N 29°50' E 122°13'9 9.1
2015-Jun-29 15:33N 29°54' E 122°04'2 0.7
2015-Jun-29 13:33N 29°54' E 122°02'0 0.0
2015-Jun-29 10:26N 29°54' E 122°02'0 0.0
2015-Jun-29 02:26N 29°54' E 122°02'0 0.0
2015-Jun-29 01:08N 29°54' E 122°02'0 0.0
2015-Jun-29 00:14N 29°54' E 122°02'1 1.5
2015-Jun-28 23:33N 29°54' E 122°03'8 7.6
2015-Jun-28 22:33N 29°53' E 122°11'1111.1
2015-Jun-28 21:33N 29°45' E 122°20'3 0.7
2015-Jun-28 17:04N 29°45' E 122°24'0 0.0
2015-Jun-28 16:16N 29°45' E 122°24'0 0.0
2015-Jun-28 02:22N 29°45' E 122°24'0 0.1
2015-Jun-28 00:10N 29°45' E 122°24'0 0.0
2015-Jun-27 23:22N 29°45' E 122°24'0 0.0
2015-Jun-27 20:04N 29°45' E 122°24'0 0.1
2015-Jun-27 17:28N 29°45' E 122°24'0 0.0
2015-Jun-27 14:10N 29°45' E 122°24'0 0.1
2015-Jun-27 13:10N 29°45' E 122°24'0 0.0
2015-Jun-27 07:21N 29°45' E 122°24'0 0.1
2015-Jun-27 05:27N 29°45' E 122°24'0 0.0
2015-Jun-27 03:15N 29°45' E 122°24'0 0.1
2015-Jun-27 02:33N 29°45' E 122°24'0 0.0
2015-Jun-27 01:33N 29°45' E 122°24'0 0.1
2015-Jun-27 00:15N 29°45' E 122°24'0 0.1
2015-Jun-26 23:33N 29°45' E 122°24'2 2.0
2015-Jun-26 22:33N 29°45' E 122°26'9 8.8
2015-Jun-26 21:32N 29°47' E 122°36'9 9.2
2015-Jun-26 20:33N 29°53' E 122°43'14 9.5
2015-Jun-26 19:04N 30°03' E 122°55'23 8.1
2015-Jun-26 16:17N 30°25' E 122°48'8 9.7
2015-Jun-26 15:30N 30°28' E 122°40'1210.6
2015-Jun-26 14:20N 30°31' E 122°26'1012.0
2015-Jun-26 13:30N 30°33' E 122°15'9 1.1
2015-Jun-26 05:23N 30°36' E 122°05'3 3.1
2015-Jun-26 04:32N 30°35' E 122°08'1311.8
2015-Jun-26 03:25N 30°33' E 122°23'8 9.7
2015-Jun-26 02:33N 30°29' E 122°32'5 0.3
2015-Jun-25 12:31N 30°30' E 122°37'1313.0
2015-Jun-25 11:33N 30°34' E 122°50'1211.7
2015-Jun-25 10:32N 30°46' E 122°55'41113.2
2015-Jun-24 03:31N 37°36' E 122°53'1212.5
2015-Jun-24 02:33N 37°43' E 122°40'1712.8
2015-Jun-24 01:15N 37°52' E 122°22'913.3
2015-Jun-24 00:33N 37°58' E 122°13'1313.3
2015-Jun-23 23:33N 38°04' E 121°58'2813.5
2015-Jun-23 21:31N 38°18' E 121°28'3313.2
2015-Jun-23 19:03N 38°33' E 120°51'  

Dump ship's entire track history